Time;durP1;ratioP1;P1;durP2;ratioP2;P2;SDS_P1;SDS_P2;PMS_P1;PMS_P2;Temp;Humidity;BMP_temperature;BMP_pressure;BME280_temperature;BME280_humidity;BME280_pressure;Samples;Min_cycle;Max_cycle;Signal;HPM_P1;HPM_P2
2023/09/18 00:00:56;;;;;;;9.52;7.18;;;23.10;64.90;;;;;;5049001;28;20036;-53
2023/09/18 00:03:24;;;;;;;11.07;7.28;;;23.10;64.90;;;;;;5044317;28;20365;-54
2023/09/18 00:05:51;;;;;;;11.88;7.68;;;23.10;64.70;;;;;;5044834;28;20184;-51
2023/09/18 00:08:17;;;;;;;12.10;7.43;;;23.00;64.80;;;;;;5049403;28;20033;-52
2023/09/18 00:10:52;;;;;;;10.00;6.82;;;23.00;64.60;;;;;;5051813;28;20044;-55
2023/09/18 00:13:17;;;;;;;13.98;7.20;;;23.00;64.90;;;;;;5051623;28;20107;-54
2023/09/18 00:15:46;;;;;;;13.68;7.35;;;23.00;64.70;;;;;;5048809;28;20144;-56
2023/09/18 00:18:14;;;;;;;12.25;7.47;;;23.00;64.70;;;;;;5050279;28;20049;-56
2023/09/18 00:20:41;;;;;;;12.02;7.13;;;23.00;65.00;;;;;;5051553;28;20041;-54
2023/09/18 00:23:07;;;;;;;9.40;6.90;;;23.00;65.00;;;;;;5052558;28;20052;-53
2023/09/18 00:25:33;;;;;;;9.43;6.88;;;23.00;64.80;;;;;;5048684;28;20021;-56
2023/09/18 00:27:59;;;;;;;10.30;7.32;;;23.00;64.70;;;;;;5044940;28;20031;-57
2023/09/18 00:30:25;;;;;;;9.90;6.65;;;22.90;64.60;;;;;;5048539;28;20032;-55
2023/09/18 00:32:51;;;;;;;10.65;6.78;;;23.00;64.60;;;;;;5037580;28;20448;-56
2023/09/18 00:35:17;;;;;;;9.10;6.97;;;22.90;64.60;;;;;;5043254;28;20087;-56
2023/09/18 00:37:43;;;;;;;12.40;6.82;;;22.90;64.60;;;;;;5045419;28;20044;-57
2023/09/18 00:40:10;;;;;;;10.90;6.60;;;23.00;64.80;;;;;;5041629;28;20029;-55
2023/09/18 00:42:36;;;;;;;12.30;7.38;;;22.90;64.60;;;;;;5047733;28;20048;-56
2023/09/18 00:45:02;;;;;;;10.93;6.93;;;22.90;64.60;;;;;;5051062;28;20469;-56
2023/09/18 00:47:28;;;;;;;10.25;6.72;;;22.90;64.60;;;;;;5048123;28;20032;-55
2023/09/18 00:49:55;;;;;;;8.68;6.40;;;22.90;64.60;;;;;;5037099;28;20033;-55
2023/09/18 00:52:23;;;;;;;11.77;6.82;;;22.90;64.60;;;;;;5031815;28;20033;-54
2023/09/18 00:54:49;;;;;;;13.07;6.47;;;22.90;64.60;;;;;;5040257;28;20033;-56
2023/09/18 00:57:15;;;;;;;9.07;6.70;;;22.90;64.70;;;;;;5049456;28;20047;-52
2023/09/18 00:59:42;;;;;;;8.88;6.32;;;22.90;64.80;;;;;;5040014;28;20021;-56
2023/09/18 01:02:08;;;;;;;9.75;6.50;;;22.90;64.70;;;;;;5041473;28;20028;-56
2023/09/18 01:04:34;;;;;;;10.13;6.60;;;22.90;64.60;;;;;;5046005;28;20400;-54
2023/09/18 01:07:03;;;;;;;9.65;6.38;;;22.90;64.70;;;;;;5044973;28;20086;-54
2023/09/18 01:09:31;;;;;;;8.35;5.95;;;22.90;64.60;;;;;;5037384;28;20205;-51
2023/09/18 01:12:21;;;;;;;12.88;6.40;;;22.80;64.70;;;;;;5047966;28;20029;-54
2023/09/18 01:14:53;;;;;;;10.10;6.88;;;22.90;64.80;;;;;;5046907;28;20035;-56
2023/09/18 01:17:20;;;;;;;9.63;6.82;;;22.90;64.80;;;;;;5049572;28;20048;-53
2023/09/18 01:19:46;;;;;;;10.98;6.47;;;22.90;64.70;;;;;;5044214;28;20025;-56
2023/09/18 01:22:14;;;;;;;10.20;6.72;;;22.80;64.70;;;;;;5032098;28;20100;-52
2023/09/18 01:24:43;;;;;;;9.23;6.07;;;22.80;64.70;;;;;;5040596;28;20114;-56
2023/09/18 01:27:13;;;;;;;9.85;6.50;;;22.80;64.60;;;;;;5032051;28;20499;-55
2023/09/18 01:29:39;;;;;;;10.98;6.82;;;22.90;64.60;;;;;;5061302;28;20017;-56
2023/09/18 01:32:05;;;;;;;8.80;6.05;;;22.90;64.40;;;;;;5041678;28;20507;-55
2023/09/18 01:34:44;;;;;;;9.15;6.10;;;22.90;64.40;;;;;;5049069;28;20025;-57
2023/09/18 01:37:12;;;;;;;9.07;6.43;;;22.90;64.40;;;;;;5050492;28;20032;-57
2023/09/18 01:39:39;;;;;;;10.52;6.63;;;22.90;64.30;;;;;;5050478;28;20104;-57
2023/09/18 01:42:06;;;;;;;9.52;6.43;;;22.90;64.20;;;;;;5033112;28;20060;-57
2023/09/18 01:44:33;;;;;;;9.77;6.15;;;22.90;64.30;;;;;;5044475;28;20029;-58
2023/09/18 01:47:02;;;;;;;8.20;5.95;;;22.90;64.30;;;;;;5047006;28;20029;-56
2023/09/18 01:49:33;;;;;;;9.47;6.17;;;22.90;64.40;;;;;;5043542;28;20014;-57
2023/09/18 01:52:00;;;;;;;8.70;5.78;;;22.90;64.30;;;;;;5045067;28;20021;-56
2023/09/18 01:54:26;;;;;;;11.25;6.72;;;22.90;64.20;;;;;;5037559;28;20025;-57
2023/09/18 01:56:53;;;;;;;12.35;7.47;;;22.90;64.20;;;;;;5027037;28;20021;-57
2023/09/18 01:59:20;;;;;;;8.00;6.18;;;22.90;64.30;;;;;;5039858;28;20202;-57
2023/09/18 02:01:46;;;;;;;10.20;5.90;;;22.90;64.20;;;;;;5027873;28;20087;-56
2023/09/18 02:04:12;;;;;;;7.13;5.40;;;22.80;64.90;;;;;;5048799;28;20033;-56
2023/09/18 02:06:39;;;;;;;9.15;6.13;;;22.80;64.20;;;;;;5051992;28;20450;-56
2023/09/18 02:09:05;;;;;;;9.50;6.07;;;22.90;64.40;;;;;;5047140;28;20028;-57
2023/09/18 02:11:31;;;;;;;8.50;5.97;;;22.80;64.20;;;;;;5043524;28;20033;-57
2023/09/18 02:13:56;;;;;;;7.63;5.95;;;22.80;64.30;;;;;;5050564;28;20052;-54
2023/09/18 02:16:24;;;;;;;8.77;5.75;;;22.80;64.50;;;;;;5053917;28;20029;-57
2023/09/18 02:18:50;;;;;;;8.27;6.10;;;22.80;64.30;;;;;;5052704;28;20025;-57
2023/09/18 02:21:23;;;;;;;10.48;6.40;;;22.80;64.50;;;;;;5049840;28;20484;-56
2023/09/18 02:23:53;;;;;;;8.95;5.45;;;22.80;64.50;;;;;;5037397;28;20029;-56
2023/09/18 02:26:19;;;;;;;9.05;6.43;;;22.70;64.50;;;;;;5053970;28;20025;-55
2023/09/18 02:28:45;;;;;;;12.05;7.43;;;22.80;64.60;;;;;;5051636;28;20033;-56
2023/09/18 02:31:13;;;;;;;11.70;7.43;;;22.80;64.50;;;;;;5052729;28;20508;-56
2023/09/18 02:33:39;;;;;;;11.65;6.80;;;22.70;64.40;;;;;;5041772;28;20057;-56
2023/09/18 02:36:05;;;;;;;10.18;6.68;;;22.80;64.50;;;;;;5045487;28;20151;-57
2023/09/18 02:38:32;;;;;;;9.38;6.60;;;22.70;64.60;;;;;;5053537;28;20480;-55
2023/09/18 02:40:58;;;;;;;11.65;7.13;;;22.70;64.50;;;;;;5038812;28;20117;-57
2023/09/18 02:43:24;;;;;;;9.75;6.53;;;22.70;64.60;;;;;;5043988;28;20590;-56
2023/09/18 02:45:51;;;;;;;11.25;6.68;;;22.70;64.50;;;;;;5050559;28;20021;-55
2023/09/18 02:48:17;;;;;;;9.38;6.28;;;22.70;64.60;;;;;;5054536;28;20087;-57
2023/09/18 02:50:43;;;;;;;8.77;5.95;;;22.70;64.50;;;;;;5047094;28;20029;-56
2023/09/18 02:53:23;;;;;;;8.85;6.00;;;22.70;64.60;;;;;;5052487;28;20396;-57
2023/09/18 02:55:51;;;;;;;9.70;6.25;;;22.70;64.70;;;;;;5042485;28;20436;-56
2023/09/18 02:58:19;;;;;;;9.15;5.47;;;22.70;64.60;;;;;;5038155;28;20036;-51
2023/09/18 03:00:49;;;;;;;7.70;5.90;;;22.70;64.60;;;;;;5044139;28;20037;-56
2023/09/18 03:03:16;;;;;;;9.75;5.68;;;22.70;64.70;;;;;;5051883;28;20029;-56
2023/09/18 03:05:44;;;;;;;9.15;6.15;;;22.60;64.60;;;;;;5043350;28;20021;-56
2023/09/18 03:08:11;;;;;;;9.73;6.75;;;22.60;64.70;;;;;;5053016;28;20403;-56
2023/09/18 03:10:40;;;;;;;8.93;5.60;;;22.60;64.70;;;;;;5052022;28;20476;-55
2023/09/18 03:13:09;;;;;;;8.23;5.70;;;22.60;64.80;;;;;;5044561;28;20487;-56
2023/09/18 03:15:35;;;;;;;9.60;5.93;;;22.60;64.80;;;;;;5047595;28;20036;-56
2023/09/18 03:18:03;;;;;;;10.00;5.88;;;22.60;64.70;;;;;;5047435;28;20039;-55
2023/09/18 03:20:30;;;;;;;7.90;6.03;;;22.60;64.70;;;;;;5047913;28;20064;-56
2023/09/18 03:23:01;;;;;;;11.05;6.20;;;22.60;64.80;;;;;;5052302;28;20040;-54
2023/09/18 03:25:27;;;;;;;8.45;6.05;;;22.60;64.80;;;;;;5049737;28;20021;-57
2023/09/18 03:27:54;;;;;;;9.48;5.75;;;22.60;64.80;;;;;;5047808;28;20372;-53
2023/09/18 03:30:24;;;;;;;10.02;5.75;;;22.60;64.90;;;;;;5042349;28;20396;-53
2023/09/18 03:32:50;;;;;;;10.10;6.15;;;22.60;64.90;;;;;;5049718;28;20061;-51
2023/09/18 03:35:18;;;;;;;9.68;6.50;;;22.60;64.80;;;;;;5051531;28;20047;-53
2023/09/18 03:37:50;;;;;;;7.72;5.63;;;22.60;64.90;;;;;;5052369;28;20084;-51
2023/09/18 03:40:18;;;;;;;8.02;6.10;;;22.60;64.90;;;;;;5041438;28;20071;-53
2023/09/18 03:42:44;;;;;;;7.60;5.70;;;22.60;65.00;;;;;;5052063;28;20036;-56
2023/09/18 03:45:10;;;;;;;11.88;6.45;;;22.60;64.90;;;;;;5052392;28;20037;-51
2023/09/18 03:47:39;;;;;;;8.00;5.57;;;22.60;64.80;;;;;;5047687;28;20087;-52
2023/09/18 03:50:09;;;;;;;9.65;6.38;;;22.60;64.90;;;;;;5041780;28;20021;-56
2023/09/18 03:52:36;;;;;;;9.75;5.80;;;22.60;64.80;;;;;;5035501;28;20087;-53
2023/09/18 03:55:03;;;;;;;9.63;6.00;;;22.60;64.80;;;;;;5050164;28;20033;-53
2023/09/18 03:57:29;;;;;;;11.50;7.90;;;22.60;64.80;;;;;;5048460;28;20079;-52
2023/09/18 03:59:54;;;;;;;11.70;7.95;;;22.60;64.80;;;;;;5042577;28;20489;-53
2023/09/18 04:02:24;;;;;;;10.95;7.47;;;22.60;65.40;;;;;;5047175;28;20082;-53
2023/09/18 04:04:51;;;;;;;10.23;7.47;;;22.60;64.80;;;;;;5048342;28;20021;-53
2023/09/18 04:07:19;;;;;;;10.85;7.15;;;22.60;64.80;;;;;;5052831;28;20037;-52
2023/09/18 04:09:45;;;;;;;11.50;6.85;;;22.60;64.90;;;;;;5052138;28;20164;-53
2023/09/18 04:12:11;;;;;;;13.98;7.53;;;22.60;64.80;;;;;;5043100;28;20099;-52
2023/09/18 04:14:38;;;;;;;13.50;8.68;;;22.60;64.80;;;;;;5048993;28;20017;-55
2023/09/18 04:17:05;;;;;;;14.63;9.80;;;22.50;64.80;;;;;;5045012;28;20382;-55
2023/09/18 04:19:31;;;;;;;14.98;9.30;;;22.60;64.80;;;;;;5041440;28;20032;-51
2023/09/18 04:21:57;;;;;;;13.65;8.40;;;22.50;64.80;;;;;;5042169;28;20025;-52
2023/09/18 04:24:23;;;;;;;13.93;8.02;;;22.60;64.90;;;;;;5046116;28;20029;-50
2023/09/18 04:26:52;;;;;;;13.25;9.00;;;22.50;64.90;;;;;;5048828;28;20039;-55
2023/09/18 04:29:21;;;;;;;13.55;8.98;;;22.50;64.90;;;;;;5044901;28;20076;-52
2023/09/18 04:31:49;;;;;;;13.48;8.80;;;22.50;64.90;;;;;;5037827;28;20021;-55
2023/09/18 04:34:15;;;;;;;13.93;7.75;;;22.50;64.90;;;;;;5041788;28;20091;-54
2023/09/18 04:36:41;;;;;;;10.60;7.80;;;22.50;65.00;;;;;;5045396;28;20028;-56
2023/09/18 04:39:09;;;;;;;11.55;7.38;;;22.50;65.00;;;;;;5047330;28;20396;-57
2023/09/18 04:41:34;;;;;;;12.05;7.35;;;22.50;65.60;;;;;;5045634;28;20045;-56
2023/09/18 04:44:04;;;;;;;10.30;7.47;;;22.50;65.10;;;;;;5045351;28;20047;-57
2023/09/18 04:46:31;;;;;;;9.80;7.07;;;22.40;65.00;;;;;;5050118;28;20083;-57
2023/09/18 04:48:57;;;;;;;10.88;7.38;;;22.50;65.10;;;;;;5042463;28;20566;-56
2023/09/18 04:51:22;;;;;;;15.25;9.35;;;22.40;65.10;;;;;;5047749;28;20025;-57
2023/09/18 04:53:48;;;;;;;13.98;8.80;;;22.40;65.10;;;;;;5038827;28;20026;-57
2023/09/18 04:56:14;;;;;;;14.68;8.00;;;22.40;65.10;;;;;;5047099;28;20029;-56
2023/09/18 04:58:40;;;;;;;11.02;7.72;;;22.50;65.20;;;;;;5050936;28;20506;-56
2023/09/18 05:01:06;;;;;;;11.90;6.38;;;22.40;65.10;;;;;;5042960;28;20029;-56
2023/09/18 05:03:34;;;;;;;11.00;7.07;;;22.40;65.10;;;;;;5044102;28;20061;-57
2023/09/18 05:06:00;;;;;;;12.27;7.35;;;22.40;65.20;;;;;;5035569;28;20049;-57
2023/09/18 05:08:26;;;;;;;9.70;6.97;;;22.40;65.20;;;;;;5043611;28;20030;-57
2023/09/18 05:10:51;;;;;;;11.43;6.28;;;22.40;65.20;;;;;;5040280;28;20033;-56
2023/09/18 05:13:17;;;;;;;11.57;6.38;;;22.40;65.20;;;;;;5050631;28;20049;-56
2023/09/18 05:15:43;;;;;;;13.05;6.22;;;22.50;65.10;;;;;;5042059;28;20040;-55
2023/09/18 05:18:09;;;;;;;11.95;6.47;;;22.50;65.10;;;;;;5039183;28;20028;-57
2023/09/18 05:20:35;;;;;;;10.50;6.80;;;22.50;65.00;;;;;;5043641;28;20029;-56
2023/09/18 05:23:02;;;;;;;12.32;6.72;;;22.60;65.00;;;;;;5048871;28;20078;-56
2023/09/18 05:25:31;;;;;;;10.75;6.65;;;22.60;64.90;;;;;;5042200;28;20029;-56
2023/09/18 05:27:59;;;;;;;9.52;5.93;;;22.60;64.80;;;;;;5047155;28;20028;-56
2023/09/18 05:30:30;;;;;;;11.02;5.80;;;22.60;64.80;;;;;;5050319;28;20082;-54
2023/09/18 05:33:04;;;;;;;9.52;6.22;;;22.60;64.80;;;;;;5045101;28;20542;-56
2023/09/18 05:35:30;;;;;;;16.52;6.53;;;22.70;64.80;;;;;;5041119;28;20037;-56
2023/09/18 05:37:58;;;;;;;8.45;5.82;;;22.70;64.80;;;;;;5046346;28;20125;-55
2023/09/18 05:40:26;;;;;;;8.18;6.07;;;22.70;64.80;;;;;;5049122;28;20573;-56
2023/09/18 05:42:54;;;;;;;19.80;6.68;;;22.70;64.90;;;;;;5041193;28;20510;-57
2023/09/18 05:45:20;;;;;;;12.07;6.07;;;22.70;65.00;;;;;;5050187;28;20036;-55
2023/09/18 05:47:47;;;;;;;9.10;5.78;;;22.70;64.90;;;;;;5045060;28;20013;-56
2023/09/18 05:50:16;;;;;;;11.73;6.07;;;22.70;64.90;;;;;;5044898;28;20029;-56
2023/09/18 05:52:43;;;;;;;11.52;6.07;;;22.70;65.00;;;;;;5036809;28;20048;-57
2023/09/18 05:55:10;;;;;;;11.07;6.10;;;22.70;65.00;;;;;;5037375;28;20032;-57
2023/09/18 05:57:36;;;;;;;10.35;5.72;;;22.70;65.00;;;;;;5044590;28;20033;-56
2023/09/18 06:00:03;;;;;;;17.77;6.55;;;22.70;65.00;;;;;;5039186;28;20108;-53
2023/09/18 06:02:37;;;;;;;12.45;6.10;;;22.70;65.00;;;;;;5048159;28;20068;-55
2023/09/18 06:05:05;;;;;;;11.38;6.10;;;22.70;65.00;;;;;;5051030;28;20032;-56
2023/09/18 06:07:31;;;;;;;11.57;5.60;;;22.70;65.00;;;;;;5040092;28;20024;-57
2023/09/18 06:09:58;;;;;;;10.10;6.38;;;22.70;65.00;;;;;;5046412;28;20071;-56
2023/09/18 06:12:25;;;;;;;10.65;6.45;;;22.80;65.10;;;;;;5045064;28;20025;-56
2023/09/18 06:14:52;;;;;;;8.20;5.68;;;22.80;65.70;;;;;;5050828;28;20542;-51
2023/09/18 06:17:18;;;;;;;11.20;6.13;;;22.80;65.10;;;;;;5045933;28;20053;-56
2023/09/18 06:19:45;;;;;;;8.98;5.85;;;22.70;65.10;;;;;;5040799;28;20045;-55
2023/09/18 06:22:11;;;;;;;16.48;5.60;;;22.80;65.10;;;;;;5034057;28;20086;-56
2023/09/18 06:24:37;;;;;;;9.35;5.63;;;22.80;65.10;;;;;;5040103;28;20545;-55
2023/09/18 06:27:06;;;;;;;10.43;6.03;;;22.80;65.10;;;;;;5045702;28;20057;-56
2023/09/18 06:29:33;;;;;;;14.03;5.97;;;22.80;65.10;;;;;;5042746;28;20020;-57
2023/09/18 06:31:59;;;;;;;10.70;6.10;;;22.80;65.10;;;;;;5045468;28;20025;-55
2023/09/18 06:34:25;;;;;;;10.50;5.88;;;22.80;65.10;;;;;;5036883;28;20040;-56
2023/09/18 06:36:51;;;;;;;9.52;5.47;;;22.80;65.30;;;;;;5031805;28;20061;-57
2023/09/18 06:39:17;;;;;;;10.27;6.40;;;22.80;65.10;;;;;;5050910;28;20056;-56
2023/09/18 06:41:43;;;;;;;9.57;5.57;;;22.80;65.20;;;;;;5044014;28;20088;-53
2023/09/18 06:44:11;;;;;;;14.00;6.23;;;22.80;65.80;;;;;;5040212;28;20025;-49
2023/09/18 06:46:37;;;;;;;13.88;5.75;;;22.80;66.40;;;;;;5050781;28;20028;-54
2023/09/18 06:49:03;;;;;;;12.30;5.93;;;22.80;65.30;;;;;;5050963;28;20064;-56
2023/09/18 06:51:29;;;;;;;12.23;6.10;;;22.90;65.40;;;;;;5048111;28;20063;-56
2023/09/18 06:53:57;;;;;;;23.63;5.93;;;22.80;65.60;;;;;;5054124;28;20028;-54
2023/09/18 06:56:26;;;;;;;24.33;7.47;;;22.80;65.70;;;;;;5048425;28;20483;-54
2023/09/18 06:58:52;;;;;;;20.20;7.32;;;22.80;65.90;;;;;;5054585;28;20025;-56
2023/09/18 07:01:19;;;;;;;18.80;7.80;;;22.80;65.90;;;;;;5029326;28;20079;-53
2023/09/18 07:03:46;;;;;;;15.52;8.30;;;22.70;65.80;;;;;;5047996;28;20028;-57
2023/09/18 07:06:18;;;;;;;23.10;7.82;;;22.80;65.80;;;;;;5046038;28;20055;-55
2023/09/18 07:08:44;;;;;;;16.02;8.70;;;22.70;65.90;;;;;;5054475;28;20438;-55
2023/09/18 07:11:11;;;;;;;16.98;9.13;;;22.80;65.70;;;;;;5052201;28;20107;-53
2023/09/18 07:13:38;;;;;;;16.35;8.07;;;22.80;65.80;;;;;;5041631;28;20030;-56
2023/09/18 07:16:03;;;;;;;16.85;8.13;;;22.80;65.80;;;;;;5052037;28;20032;-55
2023/09/18 07:18:29;;;;;;;13.05;7.90;;;22.80;66.00;;;;;;5053882;28;20033;-55
2023/09/18 07:20:55;;;;;;;16.45;8.23;;;22.80;66.30;;;;;;5053900;28;20052;-51
2023/09/18 07:23:21;;;;;;;10.75;6.88;;;22.80;66.20;;;;;;5043891;28;20339;-55
2023/09/18 07:25:50;;;;;;;12.55;6.78;;;22.90;66.50;;;;;;5050997;28;20024;-54
2023/09/18 07:28:17;;;;;;;25.90;6.80;;;22.90;67.10;;;;;;5053767;28;20109;-50
2023/09/18 07:30:47;;;;;;;21.45;6.03;;;23.00;66.60;;;;;;5048470;28;20025;-52
2023/09/18 07:33:16;;;;;;;14.48;6.72;;;23.00;66.40;;;;;;5042536;28;20025;-53
2023/09/18 07:35:41;;;;;;;16.10;7.70;;;23.00;67.40;;;;;;5050805;28;20016;-53
2023/09/18 07:38:07;;;;;;;20.10;8.18;;;23.10;68.10;;;;;;5044527;28;20044;-56
2023/09/18 07:40:34;;;;;;;13.63;7.45;;;23.20;68.50;;;;;;5048250;28;20025;-53
2023/09/18 07:42:59;;;;;;;18.20;7.90;;;23.30;68.60;;;;;;5038564;28;20029;-56
2023/09/18 07:45:25;;;;;;;15.30;6.80;;;23.30;69.00;;;;;;5043284;28;20039;-53
2023/09/18 07:47:51;;;;;;;13.68;6.72;;;23.40;68.00;;;;;;5049302;28;20118;-52
2023/09/18 07:50:18;;;;;;;12.20;6.72;;;23.40;68.90;;;;;;5038267;28;20033;-52
2023/09/18 07:52:43;;;;;;;15.98;7.40;;;23.40;68.50;;;;;;5039215;28;20021;-56
2023/09/18 07:55:09;;;;;;;10.85;6.15;;;23.40;69.20;;;;;;5041918;28;20075;-52
2023/09/18 07:57:37;;;;;;;12.27;6.28;;;23.40;67.60;;;;;;5045879;28;20025;-53
2023/09/18 08:00:07;;;;;;;10.50;5.72;;;23.40;67.90;;;;;;5048263;28;20503;-52
2023/09/18 08:02:38;;;;;;;10.48;5.72;;;23.40;67.70;;;;;;5038537;28;20112;-54
2023/09/18 08:05:05;;;;;;;11.20;5.63;;;23.40;67.60;;;;;;5045591;28;20562;-53
2023/09/18 08:07:31;;;;;;;12.90;5.93;;;23.40;67.20;;;;;;5049804;28;20132;-50
2023/09/18 08:09:57;;;;;;;8.55;5.38;;;23.40;67.40;;;;;;5047636;28;20044;-51
2023/09/18 08:12:24;;;;;;;10.48;5.70;;;23.50;66.70;;;;;;5038801;28;20480;-56
2023/09/18 08:14:50;;;;;;;9.30;5.18;;;23.50;66.50;;;;;;5044674;28;20028;-54
2023/09/18 08:17:16;;;;;;;10.98;5.25;;;23.50;66.50;;;;;;5038639;28;20472;-51
2023/09/18 08:19:44;;;;;;;10.10;5.20;;;23.60;66.50;;;;;;5048458;28;20292;-57
2023/09/18 08:22:15;;;;;;;13.73;5.50;;;23.60;66.20;;;;;;5038333;28;20022;-52
2023/09/18 08:24:41;;;;;;;10.05;5.25;;;23.60;66.40;;;;;;5043234;28;20527;-54
2023/09/18 08:27:07;;;;;;;11.43;5.28;;;23.60;66.20;;;;;;5037917;28;20056;-55
2023/09/18 08:29:33;;;;;;;8.82;5.18;;;23.60;66.10;;;;;;5049137;28;20476;-55
2023/09/18 08:31:58;;;;;;;9.48;4.85;;;23.70;66.20;;;;;;5045998;28;20017;-53
2023/09/18 08:34:24;;;;;;;11.52;5.40;;;23.70;66.20;;;;;;5038220;28;20087;-53
2023/09/18 08:36:50;;;;;;;9.90;5.68;;;23.70;66.20;;;;;;5037380;28;20041;-53
2023/09/18 08:39:16;;;;;;;8.02;5.07;;;23.70;66.60;;;;;;5046864;28;20350;-49
2023/09/18 08:41:44;;;;;;;6.57;5.03;;;23.70;65.90;;;;;;5042354;28;20033;-51
2023/09/18 08:44:10;;;;;;;10.25;5.00;;;23.70;66.00;;;;;;5041063;28;20033;-50
2023/09/18 08:46:39;;;;;;;9.30;5.60;;;23.70;65.90;;;;;;5041466;28;20013;-50
2023/09/18 08:49:07;;;;;;;10.95;5.25;;;23.80;65.90;;;;;;5040493;28;20028;-52
2023/09/18 08:51:34;;;;;;;10.43;5.20;;;23.80;65.90;;;;;;5049523;28;20028;-56
2023/09/18 08:54:00;;;;;;;8.45;5.38;;;23.80;65.90;;;;;;5035952;28;20030;-53
2023/09/18 08:56:28;;;;;;;12.15;5.07;;;23.80;65.60;;;;;;5041542;28;20124;-53
2023/09/18 08:58:54;;;;;;;9.80;5.20;;;23.80;66.00;;;;;;5035752;28;20029;-53
2023/09/18 09:01:21;;;;;;;7.63;5.10;;;23.80;65.60;;;;;;5048979;28;20565;-51
2023/09/18 09:03:46;;;;;;;6.53;4.75;;;23.80;65.60;;;;;;5039746;28;20031;-51
2023/09/18 09:06:12;;;;;;;12.60;5.30;;;23.80;65.60;;;;;;5033195;28;20025;-53
2023/09/18 09:08:39;;;;;;;8.93;4.82;;;23.70;65.70;;;;;;5037221;28;20049;-53
2023/09/18 09:11:05;;;;;;;7.90;5.05;;;23.70;65.70;;;;;;5047900;28;20112;-48
2023/09/18 09:13:31;;;;;;;9.43;5.05;;;23.70;65.80;;;;;;5042731;28;20538;-50
2023/09/18 09:15:59;;;;;;;9.48;4.65;;;23.80;65.80;;;;;;5038998;28;20056;-52
2023/09/18 09:18:31;;;;;;;6.93;4.80;;;23.80;65.70;;;;;;5037747;28;20104;-56
2023/09/18 09:20:59;;;;;;;6.72;4.55;;;23.80;65.40;;;;;;5039624;28;20433;-49
2023/09/18 09:23:27;;;;;;;9.77;5.07;;;23.80;65.30;;;;;;5048701;28;20025;-50
2023/09/18 09:25:54;;;;;;;9.10;5.07;;;23.70;65.30;;;;;;5040297;28;20021;-55
2023/09/18 09:28:30;;;;;;;9.15;4.90;;;23.70;65.30;;;;;;5036913;28;20030;-54
2023/09/18 09:31:02;;;;;;;6.50;5.20;;;23.80;65.50;;;;;;5037543;28;20399;-50
2023/09/18 09:33:29;;;;;;;8.48;5.03;;;23.80;65.30;;;;;;5043105;28;20422;-52
2023/09/18 09:35:56;;;;;;;8.65;4.90;;;23.70;65.70;;;;;;5040767;28;20029;-51
2023/09/18 09:38:31;;;;;;;10.85;5.07;;;23.80;65.30;;;;;;5036911;28;20036;-49
2023/09/18 09:41:01;;;;;;;17.27;4.57;;;23.70;65.90;;;;;;5039579;28;20392;-51
2023/09/18 09:43:30;;;;;;;10.02;4.97;;;23.70;65.70;;;;;;5047618;28;20041;-53
2023/09/18 09:45:58;;;;;;;10.82;4.78;;;23.70;65.90;;;;;;5039638;28;20882;-50
2023/09/18 09:48:25;;;;;;;9.98;4.88;;;23.60;66.00;;;;;;5035652;28;20021;-50
2023/09/18 09:50:51;;;;;;;9.63;4.85;;;23.60;65.90;;;;;;5035952;28;20021;-50
2023/09/18 09:53:18;;;;;;;7.40;4.50;;;23.60;66.10;;;;;;5037623;28;20372;-51
2023/09/18 09:55:44;;;;;;;11.20;4.63;;;23.60;66.10;;;;;;5048724;28;20115;-53
2023/09/18 09:58:11;;;;;;;6.78;4.68;;;23.50;66.20;;;;;;5040142;28;20025;-51
2023/09/18 10:00:43;;;;;;;7.78;4.78;;;23.50;66.20;;;;;;5040579;28;20029;-55
2023/09/18 10:03:11;;;;;;;7.85;4.95;;;23.50;66.20;;;;;;5037154;28;20044;-48
2023/09/18 10:05:39;;;;;;;8.05;4.68;;;23.50;66.20;;;;;;5037095;28;20053;-48
2023/09/18 10:08:19;;;;;;;8.27;4.93;;;23.50;66.30;;;;;;5047713;28;20112;-48
2023/09/18 10:10:51;;;;;;;7.82;5.00;;;23.50;66.30;;;;;;5040518;28;20075;-49
2023/09/18 10:13:53;;;;;;;6.72;4.32;;;23.50;66.30;;;;;;5041358;28;20067;-49
2023/09/18 10:16:25;;;;;;;7.63;4.45;;;23.50;66.40;;;;;;5041006;28;20036;-52
2023/09/18 10:19:15;;;;;;;7.60;4.57;;;23.50;66.40;;;;;;5039937;28;20094;-53
2023/09/18 10:21:44;;;;;;;9.70;4.78;;;23.50;66.30;;;;;;5037326;28;20109;-49
2023/09/18 10:24:20;;;;;;;8.00;4.60;;;23.50;66.40;;;;;;5043027;28;20033;-55
2023/09/18 10:26:55;;;;;;;7.40;5.30;;;23.50;66.30;;;;;;5048738;28;20099;-51
2023/09/18 10:29:23;;;;;;;7.47;4.47;;;23.50;66.30;;;;;;5046327;28;20021;-52
2023/09/18 10:31:52;;;;;;;17.73;5.32;;;23.50;66.50;;;;;;5040893;28;20535;-57
2023/09/18 10:34:18;;;;;;;9.60;4.90;;;23.50;66.90;;;;;;5046174;28;20049;-54
2023/09/18 10:36:47;;;;;;;11.63;5.07;;;23.50;66.60;;;;;;5044041;28;20032;-52
2023/09/18 10:39:19;;;;;;;8.38;4.80;;;23.50;67.00;;;;;;5048520;28;20033;-55
2023/09/18 10:41:50;;;;;;;11.95;5.00;;;23.50;66.90;;;;;;5040734;28;20029;-55
2023/09/18 10:44:17;;;;;;;17.52;5.85;;;23.50;67.30;;;;;;5037425;28;20029;-58
2023/09/18 10:46:45;;;;;;;12.38;4.72;;;23.50;67.20;;;;;;5049206;28;20025;-54
2023/09/18 10:49:11;;;;;;;9.38;5.15;;;23.50;68.00;;;;;;5048774;28;20071;-55
2023/09/18 10:51:42;;;;;;;13.60;4.88;;;23.50;67.90;;;;;;5040377;28;20022;-57
2023/09/18 10:54:09;;;;;;;10.65;4.88;;;23.50;67.40;;;;;;5044957;28;20576;-56
2023/09/18 10:56:36;;;;;;;8.10;5.10;;;23.50;67.50;;;;;;5039144;28;20025;-53
2023/09/18 10:59:03;;;;;;;11.73;4.93;;;23.50;67.40;;;;;;5051653;28;20488;-56
2023/09/18 11:01:32;;;;;;;8.38;4.57;;;23.50;67.50;;;;;;5043517;28;20029;-56
2023/09/18 11:04:01;;;;;;;8.70;4.70;;;23.50;67.10;;;;;;5042016;28;20151;-52
2023/09/18 11:06:28;;;;;;;10.68;5.32;;;23.50;67.40;;;;;;5040991;28;20132;-54
2023/09/18 11:09:09;;;;;;;13.27;5.28;;;23.50;67.10;;;;;;5050715;28;20028;-56
2023/09/18 11:11:35;;;;;;;16.45;5.72;;;23.50;67.40;;;;;;5045813;28;20025;-54
2023/09/18 11:14:02;;;;;;;8.10;5.22;;;23.50;67.40;;;;;;5043483;28;20025;-54
2023/09/18 11:16:27;;;;;;;7.53;4.97;;;23.50;67.50;;;;;;5039797;28;20083;-56
2023/09/18 11:18:57;;;;;;;10.55;5.40;;;23.50;67.10;;;;;;5045519;28;20055;-52
2023/09/18 11:21:28;;;;;;;7.60;5.00;;;23.50;67.20;;;;;;5051736;28;20141;-55
2023/09/18 11:24:17;;;;;;;13.07;5.05;;;23.50;67.50;;;;;;5042102;28;20071;-55
2023/09/18 11:26:44;;;;;;;21.83;5.40;;;23.50;67.50;;;;;;5039724;28;20065;-56
2023/09/18 11:29:13;;;;;;;11.82;5.53;;;23.50;67.50;;;;;;5044764;28;20383;-56
2023/09/18 11:31:47;;;;;;;10.82;5.00;;;23.50;67.50;;;;;;5044950;28;20018;-56
2023/09/18 11:34:31;;;;;;;9.02;5.20;;;23.50;67.20;;;;;;5048940;28;20072;-57
2023/09/18 11:37:03;;;;;;;8.07;4.82;;;23.50;67.40;;;;;;5049657;28;20040;-56
2023/09/18 11:39:37;;;;;;;10.23;5.43;;;23.50;67.50;;;;;;5043228;28;20033;-56
2023/09/18 11:42:11;;;;;;;7.82;4.80;;;23.50;67.40;;;;;;5050763;28;20029;-56
2023/09/18 11:44:41;;;;;;;9.18;5.15;;;23.50;67.50;;;;;;5038533;28;20021;-56
2023/09/18 11:47:19;;;;;;;;;;;23.50;67.30;;;;;;5042101;28;20523;-57
2023/09/18 11:49:56;;;;;;;11.77;4.95;;;23.50;67.60;;;;;;5043157;28;20384;-56
2023/09/18 11:52:26;;;;;;;10.23;5.50;;;23.50;67.50;;;;;;5043550;28;20017;-55
2023/09/18 11:54:54;;;;;;;11.23;5.15;;;23.50;67.50;;;;;;5034761;28;20443;-55
2023/09/18 11:57:20;;;;;;;13.82;5.07;;;23.50;67.70;;;;;;5042812;28;20025;-57
2023/09/18 11:59:47;;;;;;;10.15;5.10;;;23.50;67.60;;;;;;5037326;28;20034;-57
2023/09/18 12:02:20;;;;;;;9.63;5.07;;;23.50;67.50;;;;;;5049089;28;20029;-58
2023/09/18 12:04:48;;;;;;;15.30;5.40;;;23.50;67.50;;;;;;5043029;28;20025;-57
2023/09/18 12:07:14;;;;;;;9.15;5.18;;;23.50;67.50;;;;;;5042186;28;20464;-56
2023/09/18 12:09:40;;;;;;;10.10;5.25;;;23.50;67.40;;;;;;5036777;28;20022;-52
2023/09/18 12:12:07;;;;;;;11.23;5.00;;;23.50;67.50;;;;;;5049185;28;20377;-56
2023/09/18 12:14:34;;;;;;;11.18;5.22;;;23.50;67.40;;;;;;5044644;28;20025;-51
2023/09/18 12:17:03;;;;;;;10.73;4.95;;;23.50;67.50;;;;;;5040079;28;20037;-57
2023/09/18 12:19:30;;;;;;;7.90;4.97;;;23.50;67.50;;;;;;5037977;28;20128;-53
2023/09/18 12:21:56;;;;;;;10.90;5.20;;;23.50;67.40;;;;;;5041626;28;20033;-50
2023/09/18 12:24:25;;;;;;;10.52;5.50;;;23.50;67.50;;;;;;5050067;28;20024;-56
2023/09/18 12:26:52;;;;;;;8.75;4.93;;;23.50;67.70;;;;;;5042083;28;20025;-54
2023/09/18 12:29:19;;;;;;;8.27;5.28;;;23.50;67.50;;;;;;5042270;28;20475;-55
2023/09/18 12:31:45;;;;;;;8.32;5.18;;;23.50;67.70;;;;;;5035713;28;20026;-57
2023/09/18 12:34:18;;;;;;;10.07;5.65;;;23.50;67.40;;;;;;5048187;28;20043;-51
2023/09/18 12:36:48;;;;;;;10.80;4.97;;;23.50;67.70;;;;;;5042651;28;20025;-53
2023/09/18 12:39:17;;;;;;;8.95;4.95;;;23.50;67.80;;;;;;5041447;28;20553;-54
2023/09/18 12:41:44;;;;;;;7.90;5.25;;;23.50;67.80;;;;;;5039521;28;20039;-56
2023/09/18 12:44:10;;;;;;;9.10;5.40;;;23.50;67.80;;;;;;5048472;28;20076;-57